Data for 07/22/2016

Time Sea-Level Adjusted Pressure Absolute Pressure Temperature Relative Humidity Dew Point   
(mb) (inHg) (mb) (inHg) (C) (F) (%) (C) (F)
00:05 1020 30.12 849 25.07 24.5 76 20 0.3 32.6
00:10 1020 30.12 849 25.07 24.4 75.9 20 0.3 32.6
00:15 1020 30.12 849 25.07 24.3 75.8 21 0.6 33
00:20 1020 30.12 849 25.07 24.2 75.5 21 0.4 32.7
00:25 1020 30.12 849 25.07 24.1 75.3 21 0.5 32.8
00:30 1020 30.12 849 25.07 24.1 75.4 21 0.7 33.3
00:35 1020 30.12 849 25.07 23.9 75 21 0.6 33.1
00:40 1020 30.12 849 25.07 24 75.1 21 0.8 33.5
00:45 1020 30.12 849 25.07 23.7 74.7 22 0.7 33.3
00:50 1020 30.12 849 25.07 23.8 74.8 22 0.9 33.6
00:55 1020 30.12 849 25.07 23.6 74.5 22 0.9 33.6
01:00 1020 30.12 849 25.07 23.7 74.6 22 1.1 33.9
01:05 1020 30.12 849 25.07 23.7 74.7 23 1.3 34.3
01:10 1020 30.12 849 25.07 23.6 74.5 23 1.5 34.6
01:15 1020 30.12 849 25.07 23.4 74 24 1.6 34.9
01:20 1020 30.12 849 25.07 23.3 74 23 1.5 34.7
01:25 1020 30.12 849 25.07 23.4 74 24 1.9 35.4
01:30 1020 30.12 849 25.07 23.3 74 24 1.9 35.4
01:35 1020 30.12 849 25.07 23.3 73.9 24 2.1 35.7
01:40 1020 30.12 849 25.07 23.2 73.8 25 2.3 36.2
01:45 1020 30.12 849 25.07 23.1 73.6 25 2.3 36.1
01:50 1020 30.12 849 25.07 23.1 73.5 25 2.4 36.3
01:55 1020 30.12 849 25.07 23.1 73.6 25 2.5 36.4
02:00 1020 30.12 849 25.07 23 73.4 26 2.5 36.5
02:05 1020 30.12 849 25.07 23 73.3 26 2.6 36.7
02:10 1020 30.12 849 25.07 22.7 72.9 26 2.7 36.8
02:15 1020 30.12 849 25.07 22.6 72.6 27 2.7 36.8
02:20 1020 30.12 849 25.07 22.5 72.4 27 2.8 37
02:25 1020 30.12 849 25.07 22.3 72.2 27 2.8 37.1
02:30 1020 30.12 849 25.07 22.4 72.4 27 2.5 36.5
02:35 1020 30.12 849 25.07 22.5 72.5 27 2.7 36.8
02:40 1020 30.12 849 25.07 22.5 72.5 27 2.8 37.1
02:45 1020 30.12 849 25.07 22.2 72 28 2.9 37.3
02:50 1020 30.12 849 25.07 22.2 71.9 28 3 37.3
02:55 1020 30.12 849 25.07 22.1 71.8 28 2.9 37.2
03:00 1020 30.12 849 25.07 22.1 71.8 28 2.8 37.1
03:05 1020 30.12 849 25.07 22 71.6 28 3 37.5
03:10 1020 30.12 849 25.07 21.8 71.2 29 3 37.4
03:15 1020 30.12 849 25.07 21.6 70.9 30 3.4 38
03:20 1020 30.12 849 25.07 21.4 70.5 35 5.4 41.8
03:25 1020 30.12 849 25.07 21 69.8 31 3.4 38.1
03:30 1020 30.12 849 25.07 20.8 69.4 31 3.2 37.8
03:35 1020 30.12 849 25.07 20.8 69.4 31 3.3 38
03:40 1020 30.12 849 25.07 20.5 68.9 31 3.1 37.6
03:45 1020 30.12 849 25.07 20.1 68.2 32 3 37.4
03:50 1020 30.12 849 25.07 20.1 68.2 32 3.1 37.5
03:55 1020 30.12 849 25.07 20 67.9 32 3.2 37.7
04:00 1020 30.12 849 25.07 19.8 67.7 33 3.1 37.6
04:05 1020 30.12 849 25.07 19.6 67.3 33 3.1 37.5
04:10 1020 30.12 849 25.07 19.4 66.8 35 3.6 38.5
04:15 1020 30.12 849 25.07 18.9 65.9 35 3 37.4
04:20 1020 30.12 849 25.07 18.9 66.1 34 2.7 36.9
04:25 1020 30.12 849 25.07 19 66.2 35 3.1 37.7
04:30 1020 30.12 849 25.07 19.2 66.5 33 2.7 36.9
04:35 1020 30.12 849 25.07 19.2 66.6 33 2.9 37.2
04:40 1020 30.12 849 25.07 18.9 66.1 34 2.7 36.9
04:45 1020 30.12 849 25.07 18.8 65.9 34 2.6 36.6
04:50 1020 30.12 849 25.07 18.8 65.9 33 2.5 36.6
04:55 1020 30.12 849 25.07 18.7 65.7 34 2.5 36.4
05:00 1020 30.12 849 25.07 18.9 65.9 35 3 37.4
05:05 1020 30.12 849 25.07 18.5 65.3 35 2.8 37
05:10 1020 30.12 849 25.07 18.3 65 35 2.7 36.8
05:15 1020 30.12 849 25.07 18.3 64.9 34 2.3 36.1
05:20 1020 30.12 849 25.07 18.5 65.2 33 2 35.6
05:25 1020 30.12 849 25.07 18.4 65.1 33 2 35.6
05:30 1020 30.12 850 25.1 18.3 65 33 1.9 35.4
05:35 1021 30.15 850 25.1 18.2 64.7 33 1.7 35
05:40 1021 30.15 850 25.1 18.5 65.3 31 1 33.8
05:45 1021 30.15 850 25.1 19 66.1 31 1.7 35.1
05:50 1021 30.15 850 25.1 18.7 65.6 32 1.9 35.4
05:55 1021 30.15 850 25.1 18.4 65 34 2.3 36.2
06:00 1021 30.15 850 25.1 18.1 64.6 33 1.7 35
06:05 1021 30.15 850 25.1 18.1 64.5 34 2.1 35.7
06:10 1021 30.15 850 25.1 17.9 64.2 38 3.4 38.1
06:15 1021 30.15 850 25.1 17.7 63.9 34 2 35.6
06:20 1021 30.15 850 25.1 18.3 65 33 1.9 35.4
06:25 1021 30.15 850 25.1 18.7 65.7 35 3 37.4
06:30 1021 30.15 850 25.1 18.9 66.1 36 3.7 38.6
06:35 1021 30.15 850 25.1 19.1 66.4 35 3.4 38.2
06:40 1021 30.15 850 25.1 19.4 66.8 36 4.3 39.7
06:45 1021 30.15 850 25.1 19.4 67 33 2.9 37.3
06:50 1021 30.15 850 25.1 19.8 67.6 34 3.5 38.3
06:55 1021 30.15 850 25.1 20.2 68.4 33 3.6 38.4
07:00 1021 30.15 850 25.1 20.1 68.2 34 3.9 39
07:05 1021 30.15 850 25.1 19.7 67.4 35 4 39.2
07:10 1021 30.15 850 25.1 20 68 32 3 37.3
07:15 1021 30.15 850 25.1 20.6 69.1 32 3.5 38.4
07:20 1021 30.15 850 25.1 20.9 69.6 32 3.8 38.9
07:25 1021 30.15 850 25.1 21.2 70.2 32 3.8 38.9
07:30 1021 30.15 850 25.1 21.3 70.4 35 5.6 42.1
07:35 1021 30.15 850 25.1 21.7 71 32 4.5 40.1
07:40 1021 30.15 850 25.1 21.5 70.6 33 4.8 40.6
07:45 1021 30.15 850 25.1 21.3 70.3 32 4 39.1
07:50 1021 30.15 850 25.1 21.8 71.3 33 5 40.9
07:55 1021 30.15 850 25.1 22.2 72 31 4.6 40.3
08:00 1021 30.15 850 25.1 23 73.4 30 4.5 40.2
08:05 1021 30.15 850 25.1 23.6 74.6 29 4.5 40.2
08:10 1021 30.15 850 25.1 24 75.2 29 5.3 41.5
08:15 1021 30.15 850 25.1 24.3 75.8 29 5.2 41.4
08:20 1021 30.15 850 25.1 24 75.2 29 5.2 41.4
08:25 1021 30.15 850 25.1 23.8 74.9 30 5.3 41.5
08:30 1021 30.15 850 25.1 24.2 75.6 29 5.5 41.8
08:35 1021 30.15 850 25.1 24.3 75.7 30 6.1 42.9
08:40 1020 30.12 850 25.1 23.8 74.9 32 6.2 43.2
08:45 1020 30.12 850 25.1 22.9 73.3 35 6.9 44.4
08:50 1020 30.12 850 25.1 22.6 72.6 34 6.1 42.9
08:55 1020 30.12 849 25.07 22.7 72.8 34 6.4 43.5
09:00 1020 30.12 849 25.07 22.8 73.1 34 6.1 43.1
09:05 1020 30.12 849 25.07 23.1 73.5 33 6.1 42.9
09:10 1020 30.12 849 25.07 23.3 73.9 32 5.9 42.6
09:15 1020 30.12 849 25.07 23.3 74 31 5.3 41.5
09:20 1020 30.12 849 25.07 23.5 74.3 31 5.6 42.1
09:25 1020 30.12 849 25.07 23.8 74.8 31 6.1 42.9
09:30 1020 30.12 849 25.07 24 75.2 32 6.5 43.7
09:35 1020 30.12 849 25.07 24.3 75.8 24 2.9 37.1
09:40 1020 30.12 849 25.07 25.4 77.8 25 4.3 39.8
09:45 1020 30.12 849 25.07 26.1 79 23 3.8 38.8
09:50 1019 30.09 849 25.07 27 80.6 20 2.7 36.8
09:55 1019 30.09 849 25.07 27.9 82.1 18 1.9 35.4
10:00 1020 30.12 849 25.07 28.2 82.7 19 2.7 36.9
10:05 1020 30.12 849 25.07 28.4 83.1 18 2.2 36
10:10 1020 30.12 849 25.07 28.7 83.7 17 1.8 35.2
10:15 1020 30.12 849 25.07 29 84.1 18 2.4 36.2
10:20 1020 30.12 849 25.07 29 84.2 16 1.3 34.4
10:25 1020 30.12 849 25.07 29.1 84.3 16 1.3 34.3
10:30 1020 30.12 849 25.07 28.8 83.8 17 1.8 35.2
10:35 1020 30.12 849 25.07 28.8 83.8 16 1.2 34.2
10:40 1019 30.09 849 25.07 29 84.2 16 1 33.7
10:45 1019 30.09 849 25.07 29.3 84.7 15 0 32
10:50 1019 30.09 849 25.07 29.4 84.8 15 0.5 32.9
10:55 1019 30.09 848 25.04 29.6 85.2 15 0.7 33.3
11:00 1019 30.09 848 25.04 30 86.1 14 -0.2 31.6
11:05 1019 30.09 848 25.04 30.4 86.7 14 0.1 32.2
11:10 1019 30.09 848 25.04 30.3 86.6 13 -0.5 31.2
11:15 1019 30.09 848 25.04 30.3 86.6 14 0 32
11:20 1019 30.09 848 25.04 30.1 86.1 15 0.6 33.1
11:25 1019 30.09 848 25.04 30.1 86.2 14 -0.3 31.5
11:30 1019 30.09 848 25.04 30.7 87.2 14 0.1 32.2
11:35 1019 30.09 848 25.04 30.7 87.3 13 -0.8 30.5
11:40 1019 30.09 848 25.04 31 87.7 14 0.3 32.5
11:45 1019 30.09 848 25.04 31.2 88.2 13 -0.3 31.4
11:50 1018 30.06 848 25.04 31.4 88.5 13 0.3 32.5
11:55 1018 30.06 848 25.04 31.6 89 11 -1.7 29
12:00 1018 30.06 848 25.04 31.7 89.1 12 -0.4 31.3
12:05 1018 30.06 847 25.01 31.9 89.4 12 -0.6 31
12:10 1018 30.06 847 25.01 31.8 89.2 13 0.5 32.9
12:15 1018 30.06 847 25.01 31.8 89.2 13 0.3 32.5
12:20 1018 30.06 847 25.01 31.8 89.2 14 1.2 34.1
12:25 1018 30.06 847 25.01 31.9 89.4 14 1.2 34.2
12:30 1018 30.06 847 25.01 31.9 89.3 13 0.3 32.6
12:35 1018 30.06 847 25.01 31.9 89.4 13 0.3 32.6
12:40 1018 30.06 847 25.01 32.1 89.9 13 0.9 33.7
12:45 1018 30.06 847 25.01 32.6 90.6 13 0.6 33.1
12:50 1017 30.03 847 25.01 32.5 90.5 13 1 33.8
12:55 1017 30.03 846 24.98 32.7 90.8 13 0.6 33.1
13:00 1017 30.03 846 24.98 32.7 90.9 13 0.9 33.7
13:05 1017 30.03 846 24.98 32.9 91.2 13 0.9 33.5
13:10 1017 30.03 846 24.98 33 91.4 12 0.3 32.5
13:15 1017 30.03 846 24.98 32.9 91.3 13 0.9 33.6
13:20 1017 30.03 846 24.98 33.1 91.5 13 1.2 34.2
13:25 1017 30.03 846 24.98 33.4 92.1 12 0.8 33.4
13:30 1017 30.03 846 24.98 33.6 92.5 11 -1 30.2
13:35 1017 30.03 846 24.98 33.9 93.1 10 -1.2 29.8
13:40 1017 30.03 846 24.98 34 93.1 9 -2.3 27.9
13:45 1017 30.03 846 24.98 34.1 93.3 9 -2.2 28.1
13:50 1017 30.03 846 24.98 33.8 92.8 14 3.1 37.6
13:55 1017 30.03 846 24.98 32.5 90.4 14 1.9 35.3
14:00 1017 30.03 846 24.98 32.2 90 14 2.1 35.8
14:05 1017 30.03 846 24.98 32.6 90.6 14 2.2 35.9
14:10 1017 30.03 846 24.98 32.9 91.2 14 2.1 35.8
14:15 1017 30.03 846 24.98 32.7 90.9 17 4.5 40.1
14:20 1017 30.03 846 24.98 31.9 89.5 15 2.5 36.5
14:25 1017 30.03 846 24.98 31.3 88.3 17 3.8 38.8
14:30 1016 30 846 24.98 31.2 88.1 16 2.5 36.5
14:35 1016 30 846 24.98 31.7 89.1 15 2.5 36.5
14:40 1016 30 846 24.98 32 89.5 14 1.6 34.9
14:45 1016 30 845 24.95 32.6 90.7 14 1.8 35.2
14:50 1016 30 845 24.95 32.9 91.1 13 1.3 34.4
14:55 1016 30 845 24.95 32.3 90.1 13 0.9 33.6
15:00 1016 30 845 24.95 31.8 89.2 13 0.7 33.2
15:05 1016 30 845 24.95 32.1 89.8 14 1.5 34.6
15:10 1016 30 845 24.95 32.4 90.3 14 1.5 34.7
15:15 1016 30 845 24.95 32.2 89.9 13 0.4 32.7
15:20 1016 30 845 24.95 32.1 89.8 12 -0.4 31.3
15:25 1016 30 845 24.95 32.3 90.2 12 -0.2 31.6
15:30 1016 30 845 24.95 32.8 91 12 0.4 32.7
15:35 1016 30 845 24.95 32.9 91.2 11 -0.9 30.4
15:40 1016 30 845 24.95 32.7 90.8 11 -0.9 30.4
15:45 1016 30 845 24.95 32.7 90.8 13 0.7 33.3
15:50 1016 30 845 24.95 32 89.5 13 1 33.8
15:55 1016 30 845 24.95 31.6 88.8 14 1.1 33.9
16:00 1016 30 845 24.95 31.2 88.1 14 0.7 33.3
16:05 1016 30 845 24.95 31.2 88.2 14 0.7 33.2
16:10 1016 30 845 24.95 31.9 89.4 14 1.1 34
16:15 1015 29.97 845 24.95 32.5 90.5 12 0.4 32.7
16:20 1015 29.97 845 24.95 32.2 90 12 -0.2 31.6
16:25 1015 29.97 845 24.95 32.1 89.8 13 0.6 33
16:30 1015 29.97 844 24.92 32.2 89.9 13 0.8 33.5
16:35 1015 29.97 844 24.92 32.7 90.8 12 0.1 32.2
16:40 1015 29.97 844 24.92 33.2 91.7 11 -0.3 31.5
16:45 1015 29.97 844 24.92 33.3 91.9 12 -0.1 31.8
16:50 1015 29.97 844 24.92 32.5 90.5 11 -0.9 30.3
16:55 1015 29.97 844 24.92 32.3 90.1 11 -1.6 29.1
17:00 1015 29.97 844 24.92 32.5 90.5 12 -0.5 31
17:05 1015 29.97 844 24.92 32.3 90.2 11 -1.6 29
17:10 1015 29.97 844 24.92 32.3 90.1 11 -1.1 30.1
17:15 1015 29.97 844 24.92 32.2 89.9 11 -1.2 29.8
17:20 1015 29.97 844 24.92 32.1 89.8 11 -1.3 29.6
17:25 1015 29.97 844 24.92 31.7 89.1 15 2.2 36
17:30 1015 29.97 844 24.92 30.8 87.4 16 2.7 36.8
17:35 1015 29.97 844 24.92 31 87.8 13 -0.4 31.3
17:40 1015 29.97 844 24.92 31.2 88.1 12 -0.9 30.3
17:45 1015 29.97 844 24.92 31.3 88.3 10 -4.3 24.2
17:50 1015 29.97 844 24.92 31.4 88.5 11 -2.7 27.1
17:55 1014 29.94 844 24.92 31.5 88.7 9 -5.5 22
18:00 1014 29.94 844 24.92 32 89.6 10 -3.1 26.5
18:05 1014 29.94 844 24.92 31.6 88.9 10 -2.8 26.9
18:10 1014 29.94 844 24.92 31.7 89.1 9 -4.2 24.4
18:15 1014 29.94 844 24.92 31.9 89.3 12 -1.2 29.9
18:20 1015 29.97 844 24.92 30.5 86.9 15 1.1 34
18:25 1015 29.97 844 24.92 29.1 84.5 15 0.6 33.1
18:30 1015 29.97 844 24.92 28.5 83.2 17 1.6 34.9
18:35 1015 29.97 844 24.92 28 82.4 18 1.8 35.2
18:40 1015 29.97 844 24.92 27.7 81.9 19 2.4 36.3
18:45 1015 29.97 845 24.95 27.5 81.5 19 1.8 35.2
18:50 1016 30 845 24.95 27.4 81.3 19 2 35.6
18:55 1016 30 845 24.95 27.2 81 20 2.3 36.2
19:00 1016 30 845 24.95 27 80.6 20 2.6 36.7
19:05 1016 30 845 24.95 26.8 80.2 21 2.9 37.2
19:10 1016 30 845 24.95 26.7 80 21 2.9 37.3
19:15 1016 30 846 24.98 26.6 79.9 21 3.1 37.6
19:20 1017 30.03 846 24.98 26.5 79.7 22 3.2 37.8
19:25 1017 30.03 846 24.98 26.3 79.3 22 3 37.4
19:30 1017 30.03 846 24.98 26.1 79 22 3 37.4
19:35 1017 30.03 846 24.98 25.9 78.7 23 3.7 38.7
19:40 1017 30.03 846 24.98 25.7 78.3 23 3.2 37.7
19:45 1017 30.03 847 25.01 25.5 77.9 23 3 37.5
19:50 1017 30.03 847 25.01 25.3 77.5 23 3 37.4
19:55 1018 30.06 847 25.01 25 77 24 3.2 37.7
20:00 1018 30.06 847 25.01 24.7 76.4 24 3 37.4
20:05 1018 30.06 847 25.01 24.4 75.9 24 3 37.4
20:10 1018 30.06 847 25.01 23.9 75.1 26 3.4 38
20:15 1018 30.06 847 25.01 23.4 74.2 26 3.3 37.9
20:20 1018 30.06 847 25.01 23.1 73.5 27 3.1 37.5
20:25 1018 30.06 847 25.01 22.9 73.2 26 2.8 37.1
20:30 1018 30.06 847 25.01 22.9 73.2 26 2.6 36.7
20:35 1018 30.06 848 25.04 22.8 73.1 26 2.7 36.9
20:40 1019 30.09 848 25.04 22.8 73 26 2.6 36.7
20:45 1019 30.09 848 25.04 22.8 73 26 2.7 36.9
20:50 1019 30.09 848 25.04 22.9 73.2 25 2 35.6
20:55 1019 30.09 848 25.04 23.1 73.5 25 2.5 36.4
21:00 1019 30.09 848 25.04 22.9 73.3 26 2.5 36.6
21:05 1019 30.09 849 25.07 22.8 73.1 25 2.2 36
21:10 1019 30.09 849 25.07 22.8 73.1 26 2.8 37
21:15 1020 30.12 849 25.07 22.6 72.8 26 2.6 36.6
21:20 1020 30.12 849 25.07 22.5 72.5 27 2.8 37.1
21:25 1020 30.12 849 25.07 22.2 72 28 3 37.4
21:30 1020 30.12 849 25.07 22 71.6 29 3.2 37.8
21:35 1020 30.12 849 25.07 21.7 71.1 29 3 37.3
21:40 1020 30.12 849 25.07 21.6 70.8 29 2.9 37.3
21:45 1020 30.12 849 25.07 21.4 70.4 29 2.8 37
21:50 1020 30.12 849 25.07 21.1 70.1 29 2.6 36.7
21:55 1020 30.12 849 25.07 21 69.8 30 2.8 37.1
22:00 1020 30.12 849 25.07 20.8 69.5 30 2.9 37.3
22:05 1020 30.12 849 25.07 20.7 69.2 30 2.7 36.9
22:10 1020 30.12 849 25.07 20.5 68.9 31 3 37.4
22:15 1020 30.12 849 25.07 20.4 68.6 31 2.7 36.9
22:20 1020 30.12 849 25.07 20.3 68.6 31 2.8 37.1
22:25 1020 30.12 850 25.1 20.3 68.5 31 2.8 37
22:30 1020 30.12 850 25.1 20.2 68.4 31 2.9 37.2
22:35 1020 30.12 850 25.1 20.1 68.2 32 2.9 37.2
22:40 1021 30.15 850 25.1 19.9 67.9 32 3 37.4
22:45 1021 30.15 850 25.1 19.8 67.7 33 3 37.5
22:50 1021 30.15 850 25.1 19.7 67.5 33 3.3 37.9
22:55 1021 30.15 850 25.1 19.6 67.2 33 3.1 37.6
23:00 1021 30.15 850 25.1 19.5 67.1 34 3.3 37.9
23:05 1021 30.15 850 25.1 19.4 66.9 34 3.3 37.9
23:10 1021 30.15 850 25.1 19.4 66.8 34 3.3 37.9
23:15 1021 30.15 850 25.1 19.3 66.7 35 3.5 38.3
23:20 1021 30.15 850 25.1 19.2 66.5 35 3.6 38.4
23:25 1021 30.15 850 25.1 19.1 66.3 36 3.7 38.7
23:30 1021 30.15 850 25.1 18.8 65.8 37 4 39.2
23:35 1021 30.15 850 25.1 18.4 65.2 38 4.1 39.3
23:40 1021 30.15 850 25.1 18.2 64.8 39 4.1 39.4
23:45 1021 30.15 850 25.1 18.1 64.6 39 4.2 39.5
23:50 1021 30.15 850 25.1 18 64.4 40 4.3 39.7
23:55 1021 30.15 850 25.1 17.9 64.2 40 4.2 39.6
24:00 1021 30.15 850 25.1 17.7 63.8 41 4.5 40